Time;durP1;ratioP1;P1;durP2;ratioP2;P2;SDS_P1;SDS_P2;PMS_P1;PMS_P2;Temp;Humidity;BMP_temperature;BMP_pressure;BME280_temperature;BME280_humidity;BME280_pressure;Samples;Min_cycle;Max_cycle;Signal;HPM_P1;HPM_P2
2024/01/20 00:00:43;;;;;;;54.83;15.00;;;26.30;30.40;;;;;;5048576;28;20290;-77
2024/01/20 00:03:10;;;;;;;44.50;13.53;;;26.40;30.40;;;;;;5053898;28;20223;-77
2024/01/20 00:05:37;;;;;;;56.20;13.63;;;26.40;30.40;;;;;;5051754;28;20550;-78
2024/01/20 00:08:04;;;;;;;40.53;13.67;;;26.40;30.30;;;;;;5069472;28;20204;-77
2024/01/20 00:10:31;;;;;;;74.70;15.57;;;26.40;30.30;;;;;;5066767;28;20199;-78
2024/01/20 00:12:58;;;;;;;47.33;15.03;;;26.40;30.30;;;;;;5068456;28;20314;-77
2024/01/20 00:15:25;;;;;;;39.57;13.03;;;26.40;30.30;;;;;;5068786;28;20286;-77
2024/01/20 00:17:54;;;;;;;42.63;13.77;;;26.50;30.30;;;;;;5069872;28;20678;-80
2024/01/20 00:20:21;;;;;;;47.40;14.27;;;26.50;30.20;;;;;;5069385;28;20203;-78
2024/01/20 00:22:48;;;;;;;44.43;13.77;;;26.50;30.90;;;;;;5068548;28;20199;-79
2024/01/20 00:25:15;;;;;;;40.53;13.57;;;26.50;30.30;;;;;;5049424;28;20676;-80
2024/01/20 00:27:42;;;;;;;46.13;13.17;;;26.50;30.30;;;;;;5049364;28;20200;-77
2024/01/20 00:30:10;;;;;;;37.37;12.97;;;26.50;30.30;;;;;;5049415;28;20197;-81
2024/01/20 00:32:37;;;;;;;62.93;15.53;;;26.60;30.30;;;;;;5050218;28;20211;-77
2024/01/20 00:35:06;;;;;;;44.77;13.77;;;26.60;30.30;;;;;;5068569;28;20281;-80
2024/01/20 00:37:33;;;;;;;54.90;15.93;;;26.50;30.20;;;;;;5069556;28;20222;-78
2024/01/20 00:40:00;;;;;;;46.00;13.43;;;26.60;30.40;;;;;;5069360;28;20284;-78
2024/01/20 00:42:27;;;;;;;42.50;12.60;;;26.60;30.30;;;;;;5068929;28;20284;-77
2024/01/20 00:44:54;;;;;;;43.33;13.77;;;26.60;30.30;;;;;;5067794;28;20202;-78
2024/01/20 00:47:21;;;;;;;51.23;14.07;;;26.60;30.30;;;;;;5068648;28;20233;-80
2024/01/20 00:49:48;;;;;;;38.20;13.37;;;26.60;30.30;;;;;;5068407;28;20309;-77
2024/01/20 00:52:16;;;;;;;37.47;12.67;;;26.60;30.30;;;;;;5068922;28;20193;-77
2024/01/20 00:54:43;;;;;;;42.43;13.47;;;26.60;30.20;;;;;;5067103;28;20204;-76
2024/01/20 00:57:10;;;;;;;41.93;13.40;;;26.60;30.20;;;;;;5063618;28;20236;-78
2024/01/20 00:59:37;;;;;;;42.93;13.93;;;26.60;30.20;;;;;;5067906;28;20206;-78
2024/01/20 01:02:04;;;;;;;70.67;16.17;;;26.70;30.20;;;;;;5068602;28;20290;-77
2024/01/20 01:04:31;;;;;;;42.83;13.10;;;26.60;30.10;;;;;;5068614;28;20202;-77
2024/01/20 01:06:58;;;;;;;43.47;14.63;;;26.60;30.10;;;;;;5067273;28;20209;-79
2024/01/20 01:09:26;;;;;;;41.80;14.10;;;26.70;30.10;;;;;;5067476;28;20290;-77
2024/01/20 01:11:53;;;;;;;43.37;13.93;;;26.70;30.10;;;;;;5068156;28;20666;-80
2024/01/20 01:14:20;;;;;;;39.10;13.83;;;26.70;30.80;;;;;;5068474;28;20192;-80
2024/01/20 01:16:47;;;;;;;66.63;15.23;;;26.70;30.10;;;;;;5068131;28;20231;-80
2024/01/20 01:19:15;;;;;;;44.47;12.63;;;26.70;30.10;;;;;;5067847;28;20345;-78
2024/01/20 01:21:42;;;;;;;36.57;12.93;;;26.70;30.10;;;;;;5068336;28;20207;-81
2024/01/20 01:24:09;;;;;;;47.13;17.03;;;26.70;30.10;;;;;;5067960;28;20659;-79
2024/01/20 01:26:37;;;;;;;36.80;12.87;;;26.70;30.10;;;;;;5067589;28;20201;-79
2024/01/20 01:29:05;;;;;;;60.27;13.77;;;26.70;30.10;;;;;;5067591;28;20643;-78
2024/01/20 01:31:32;;;;;;;41.80;12.10;;;26.70;30.00;;;;;;5067986;28;20279;-77
2024/01/20 01:33:59;;;;;;;44.67;13.43;;;26.80;30.20;;;;;;5067771;28;20214;-79
2024/01/20 01:36:26;;;;;;;45.83;13.67;;;26.70;30.10;;;;;;5067826;28;20875;-79
2024/01/20 01:38:53;;;;;;;41.13;12.77;;;26.70;30.10;;;;;;5067786;28;20368;-80
2024/01/20 01:41:20;;;;;;;43.93;12.00;;;26.70;30.00;;;;;;5067870;28;20311;-80
2024/01/20 01:43:48;;;;;;;41.07;12.63;;;26.80;30.10;;;;;;5067854;28;20192;-79
2024/01/20 01:46:15;;;;;;;52.83;14.97;;;26.70;30.00;;;;;;5066492;28;20209;-80
2024/01/20 01:48:42;;;;;;;43.00;14.10;;;26.70;30.00;;;;;;5066952;28;20310;-79
2024/01/20 01:51:09;;;;;;;47.33;13.17;;;26.80;30.00;;;;;;5064952;28;20630;-80
2024/01/20 01:53:37;;;;;;;46.17;13.50;;;26.70;30.00;;;;;;5062585;28;20285;-80
2024/01/20 01:56:06;;;;;;;36.43;12.10;;;26.80;30.00;;;;;;5067644;28;20310;-77
2024/01/20 01:58:33;;;;;;;37.07;13.60;;;26.80;30.00;;;;;;5066878;28;20294;-79
2024/01/20 02:01:02;;;;;;;61.90;13.87;;;26.80;30.00;;;;;;5065600;28;20235;-79
2024/01/20 02:03:28;;;;;;;41.30;12.63;;;26.80;30.00;;;;;;5067353;28;20250;-78
2024/01/20 02:05:55;;;;;;;44.17;13.77;;;26.80;30.00;;;;;;5066816;28;20666;-79
2024/01/20 02:08:26;;;;;;;38.80;12.07;;;26.80;30.00;;;;;;5067327;28;20661;-79
2024/01/20 02:10:53;;;;;;;48.23;14.20;;;26.80;30.00;;;;;;5067819;28;20532;-79
2024/01/20 02:13:21;;;;;;;53.03;14.53;;;26.80;30.00;;;;;;5067272;28;20615;-76
2024/01/20 02:15:48;;;;;;;38.00;12.33;;;26.80;30.00;;;;;;5066304;28;20207;-75
2024/01/20 02:18:17;;;;;;;38.57;12.03;;;26.80;30.00;;;;;;5067089;28;20239;-79
2024/01/20 02:20:44;;;;;;;35.10;11.93;;;26.80;30.00;;;;;;5067490;28;20208;-79
2024/01/20 02:23:12;;;;;;;38.30;13.37;;;26.80;30.00;;;;;;5068320;28;20215;-75
2024/01/20 02:25:39;;;;;;;35.03;13.30;;;26.80;30.00;;;;;;5069379;28;20209;-75
2024/01/20 02:28:07;;;;;;;44.50;13.20;;;26.80;30.00;;;;;;5054630;28;20206;-77
2024/01/20 02:30:34;;;;;;;43.83;12.50;;;26.80;30.00;;;;;;5050799;28;20303;-76
2024/01/20 02:33:01;;;;;;;41.97;12.70;;;26.80;30.00;;;;;;5070283;28;20287;-75
2024/01/20 02:35:27;;;;;;;43.40;13.00;;;26.80;30.50;;;;;;5071451;28;20291;-75
2024/01/20 02:37:55;;;;;;;34.43;12.63;;;26.80;30.00;;;;;;5071545;28;20245;-76
2024/01/20 02:40:23;;;;;;;40.23;12.17;;;26.90;30.00;;;;;;5071698;28;20656;-80
2024/01/20 02:42:50;;;;;;;46.50;13.40;;;26.80;29.90;;;;;;5070521;28;20723;-80
2024/01/20 02:45:17;;;;;;;42.00;13.23;;;26.80;29.90;;;;;;5068065;28;20295;-81
2024/01/20 02:47:44;;;;;;;46.07;13.50;;;26.80;29.90;;;;;;5070372;28;20210;-79
2024/01/20 02:50:11;;;;;;;40.00;12.67;;;26.80;29.90;;;;;;5071109;28;20603;-80
2024/01/20 02:52:38;;;;;;;50.67;12.60;;;26.80;29.90;;;;;;5058947;28;20248;-78
2024/01/20 02:55:06;;;;;;;38.73;12.43;;;26.80;29.90;;;;;;5050974;28;20251;-75
2024/01/20 02:57:34;;;;;;;46.53;14.37;;;26.80;29.90;;;;;;5050986;28;20299;-78
2024/01/20 03:00:01;;;;;;;43.33;12.80;;;26.90;29.90;;;;;;5050330;28;20287;-79
2024/01/20 03:02:28;;;;;;;42.43;25.70;;;26.90;30.50;;;;;;5056988;28;20291;-77
2024/01/20 03:04:55;;;;;;;39.27;12.57;;;26.90;29.90;;;;;;5050913;28;20216;-80
2024/01/20 03:07:22;;;;;;;46.83;13.93;;;26.90;29.80;;;;;;5051471;28;20287;-82
2024/01/20 03:09:49;;;;;;;35.30;13.67;;;26.90;29.80;;;;;;5050684;28;20323;-82
2024/01/20 03:12:16;;;;;;;38.43;12.30;;;26.80;29.80;;;;;;5055876;28;20291;-82
2024/01/20 03:14:44;;;;;;;87.47;16.73;;;26.90;29.80;;;;;;5068202;28;20200;-82
2024/01/20 03:17:11;;;;;;;39.07;12.90;;;26.90;29.80;;;;;;5068787;28;20334;-82
2024/01/20 03:19:38;;;;;;;47.53;14.40;;;26.90;29.90;;;;;;5070852;28;20287;-82
2024/01/20 03:22:05;;;;;;;41.70;13.53;;;26.90;30.00;;;;;;5070786;28;20200;-79
2024/01/20 03:24:32;;;;;;;41.13;12.73;;;26.90;29.90;;;;;;5070138;28;20239;-82
2024/01/20 03:26:59;;;;;;;38.17;12.83;;;26.90;29.90;;;;;;5069797;28;20204;-78
2024/01/20 03:29:26;;;;;;;41.00;13.07;;;26.90;29.80;;;;;;5066974;28;20259;-78
2024/01/20 03:31:54;;;;;;;52.70;14.33;;;26.90;29.90;;;;;;5069974;28;20303;-82
2024/01/20 03:34:22;;;;;;;45.17;14.63;;;26.90;29.80;;;;;;5069743;28;20652;-81
2024/01/20 03:36:49;;;;;;;68.23;14.63;;;26.90;29.90;;;;;;5069346;28;21128;-78
2024/01/20 03:39:16;;;;;;;34.30;13.33;;;26.90;29.80;;;;;;5069123;28;20217;-79
2024/01/20 03:41:43;;;;;;;67.53;15.53;;;26.90;29.80;;;;;;5069783;28;20560;-78
2024/01/20 03:44:10;;;;;;;43.80;13.93;;;26.90;29.80;;;;;;5070054;28;20210;-76
2024/01/20 03:46:37;;;;;;;80.47;19.57;;;26.90;29.80;;;;;;5069579;28;20198;-76
2024/01/20 03:49:05;;;;;;;44.33;13.67;;;26.90;29.80;;;;;;5070364;28;20222;-76
2024/01/20 03:51:32;;;;;;;34.67;13.73;;;26.90;29.80;;;;;;5070272;28;20275;-77
2024/01/20 03:54:01;;;;;;;45.43;13.40;;;26.90;29.80;;;;;;5070235;28;20329;-77
2024/01/20 03:56:28;;;;;;;36.37;13.77;;;26.90;29.80;;;;;;5069656;28;20298;-78
2024/01/20 03:58:55;;;;;;;46.93;15.60;;;26.90;29.80;;;;;;5069004;28;20231;-79
2024/01/20 04:01:22;;;;;;;38.50;12.77;;;26.90;29.80;;;;;;5069997;28;20195;-78
2024/01/20 04:03:49;;;;;;;42.00;14.70;;;26.90;29.80;;;;;;5069200;28;20212;-78
2024/01/20 04:06:17;;;;;;;48.23;13.17;;;26.90;29.70;;;;;;5069874;28;20184;-82
2024/01/20 04:08:44;;;;;;;43.20;14.13;;;26.90;29.70;;;;;;5069039;28;20265;-82
2024/01/20 04:11:11;;;;;;;45.23;15.17;;;26.90;29.80;;;;;;5069347;28;20191;-81
2024/01/20 04:13:38;;;;;;;41.03;13.67;;;26.90;29.80;;;;;;5069126;28;20200;-79
2024/01/20 04:16:05;;;;;;;48.17;13.77;;;27.00;29.80;;;;;;5069714;28;20191;-80
2024/01/20 04:18:32;;;;;;;50.77;13.33;;;26.90;29.80;;;;;;5068304;28;20314;-82
2024/01/20 04:20:59;;;;;;;54.63;15.50;;;26.90;29.80;;;;;;5069282;28;20282;-82
2024/01/20 04:23:27;;;;;;;39.20;13.97;;;26.90;29.70;;;;;;5065400;28;20298;-78
2024/01/20 04:25:54;;;;;;;51.60;13.90;;;27.00;29.70;;;;;;5068609;28;20199;-79
2024/01/20 04:28:21;;;;;;;53.77;15.80;;;26.90;29.70;;;;;;5069075;28;20287;-78
2024/01/20 04:30:48;;;;;;;47.00;14.07;;;27.00;29.70;;;;;;5058996;28;20196;-79
2024/01/20 04:33:15;;;;;;;52.93;15.07;;;26.90;29.70;;;;;;5063462;28;20200;-78
2024/01/20 04:35:42;;;;;;;45.43;15.63;;;26.80;29.60;;;;;;5068704;28;20304;-78
2024/01/20 04:38:08;;;;;;;43.47;13.73;;;26.90;29.70;;;;;;5068990;28;20387;-79
2024/01/20 04:40:37;;;;;;;46.93;14.27;;;26.90;29.70;;;;;;5068665;28;20286;-78
2024/01/20 04:43:04;;;;;;;49.40;15.23;;;26.90;29.70;;;;;;5067252;28;20203;-77
2024/01/20 04:45:31;;;;;;;50.37;14.70;;;26.90;29.70;;;;;;5067097;28;20275;-78
2024/01/20 04:47:58;;;;;;;45.57;15.10;;;26.90;29.70;;;;;;5069128;28;20198;-77
2024/01/20 04:50:25;;;;;;;54.92;15.40;;;26.90;29.70;;;;;;5067467;28;20707;-76
2024/01/20 04:52:52;;;;;;;54.67;15.40;;;27.00;29.70;;;;;;5068595;28;20198;-77
2024/01/20 04:55:19;;;;;;;43.00;14.87;;;26.90;29.70;;;;;;5068657;28;20200;-77
2024/01/20 04:57:47;;;;;;;41.80;13.77;;;27.00;29.70;;;;;;5068843;28;20231;-76
2024/01/20 05:00:15;;;;;;;35.90;13.87;;;27.00;29.60;;;;;;5067747;28;20290;-77
2024/01/20 05:02:42;;;;;;;42.07;14.17;;;27.00;29.70;;;;;;5068507;28;20188;-78
2024/01/20 05:05:09;;;;;;;48.37;14.10;;;27.00;29.70;;;;;;5068749;28;20291;-78
2024/01/20 05:07:36;;;;;;;42.00;15.63;;;26.90;29.60;;;;;;5059272;28;20211;-77
2024/01/20 05:10:03;;;;;;;43.77;14.73;;;27.00;29.60;;;;;;5052703;28;20283;-77
2024/01/20 05:12:30;;;;;;;57.63;16.57;;;27.00;29.60;;;;;;5065995;28;20328;-77
2024/01/20 05:14:58;;;;;;;37.03;13.87;;;27.00;29.60;;;;;;5068313;28;20294;-80
2024/01/20 05:17:25;;;;;;;44.17;14.27;;;27.00;29.60;;;;;;5065684;28;20575;-77
2024/01/20 05:19:52;;;;;;;37.07;14.33;;;27.00;29.60;;;;;;5068234;28;20203;-76
2024/01/20 05:22:19;;;;;;;42.73;15.17;;;26.90;29.60;;;;;;5068043;28;20310;-80
2024/01/20 05:24:46;;;;;;;38.40;14.20;;;27.00;29.60;;;;;;5067885;28;20222;-79
2024/01/20 05:27:13;;;;;;;50.97;15.13;;;27.00;29.60;;;;;;5062195;28;20238;-80
2024/01/20 05:29:39;;;;;;;42.73;13.90;;;27.00;29.60;;;;;;5048189;28;20196;-78
2024/01/20 05:32:08;;;;;;;48.63;14.80;;;27.00;29.60;;;;;;5049332;28;20280;-80
2024/01/20 05:34:34;;;;;;;48.17;15.53;;;27.00;29.60;;;;;;5048042;28;20207;-79
2024/01/20 05:37:01;;;;;;;45.37;13.83;;;27.00;29.60;;;;;;5048003;28;20206;-80
2024/01/20 05:39:28;;;;;;;46.70;14.50;;;27.00;29.60;;;;;;5048007;28;20342;-80
2024/01/20 05:41:58;;;;;;;43.33;15.07;;;27.00;29.60;;;;;;5048317;28;20204;-79
2024/01/20 05:44:25;;;;;;;46.07;14.53;;;27.00;29.60;;;;;;5059651;28;20204;-78
2024/01/20 05:46:51;;;;;;;42.10;14.60;;;27.00;29.60;;;;;;5068044;28;20204;-79
2024/01/20 05:49:20;;;;;;;47.60;15.10;;;27.00;29.60;;;;;;5067887;28;20223;-79
2024/01/20 05:51:47;;;;;;;56.53;14.37;;;27.00;29.50;;;;;;5067076;28;20295;-79
2024/01/20 05:54:13;;;;;;;53.20;15.53;;;27.00;29.60;;;;;;5068010;28;20188;-81
2024/01/20 05:56:40;;;;;;;44.13;14.40;;;27.00;30.00;;;;;;5067919;28;20235;-80
2024/01/20 05:59:07;;;;;;;40.60;13.97;;;27.00;29.60;;;;;;5067286;28;20322;-77
2024/01/20 06:01:34;;;;;;;50.93;13.83;;;27.00;29.60;;;;;;5067140;28;20242;-78
2024/01/20 06:04:03;;;;;;;48.40;14.07;;;27.00;29.60;;;;;;5066992;28;20230;-80
2024/01/20 06:06:32;;;;;;;55.83;16.53;;;27.00;29.60;;;;;;5067499;28;20196;-81
2024/01/20 06:08:59;;;;;;;45.53;15.13;;;27.00;29.60;;;;;;5067720;28;20218;-81
2024/01/20 06:11:26;;;;;;;46.33;14.80;;;27.00;29.60;;;;;;5064268;28;20196;-82
2024/01/20 06:13:53;;;;;;;39.03;13.33;;;26.90;29.50;;;;;;5058804;28;20261;-81
2024/01/20 06:16:21;;;;;;;40.23;14.07;;;26.90;29.50;;;;;;5047348;28;20203;-81
2024/01/20 06:18:48;;;;;;;36.20;14.63;;;27.00;29.60;;;;;;5047700;28;20232;-80
2024/01/20 06:21:21;;;;;;;57.07;14.57;;;27.00;29.60;;;;;;5047399;28;20204;-80
2024/01/20 06:23:50;;;;;;;36.80;12.73;;;27.00;29.50;;;;;;5047404;28;20216;-80
2024/01/20 06:26:17;;;;;;;35.70;12.40;;;27.00;29.60;;;;;;5057408;28;20208;-80
2024/01/20 06:28:44;;;;;;;61.70;15.43;;;27.00;29.60;;;;;;5067125;28;20571;-80
2024/01/20 06:31:21;;;;;;;43.30;13.63;;;27.00;29.60;;;;;;5066558;28;20213;-80
2024/01/20 06:33:48;;;;;;;51.63;14.87;;;27.00;29.60;;;;;;5051335;28;20195;-79
2024/01/20 06:36:15;;;;;;;38.57;13.40;;;27.00;29.60;;;;;;5047334;28;20220;-81
2024/01/20 06:38:42;;;;;;;43.80;13.13;;;27.00;29.50;;;;;;5047315;28;20306;-80
2024/01/20 06:41:10;;;;;;;40.70;13.13;;;27.00;29.60;;;;;;5047509;28;20208;-81
2024/01/20 06:43:37;;;;;;;52.20;14.17;;;27.00;29.50;;;;;;5047014;28;20819;-79
2024/01/20 06:46:04;;;;;;;37.20;13.10;;;27.00;29.60;;;;;;5047303;28;20204;-80
2024/01/20 06:48:32;;;;;;;44.83;13.37;;;27.00;29.50;;;;;;5047447;28;20228;-79
2024/01/20 06:51:00;;;;;;;50.03;13.23;;;27.00;29.50;;;;;;5046802;28;20235;-81
2024/01/20 06:53:27;;;;;;;43.17;12.47;;;27.00;29.50;;;;;;5047071;28;20203;-77
2024/01/20 06:55:54;;;;;;;49.83;12.77;;;27.00;29.50;;;;;;5051933;28;20214;-79
2024/01/20 06:58:23;;;;;;;46.83;14.67;;;27.00;29.50;;;;;;5062620;28;20317;-80
2024/01/20 07:00:50;;;;;;;40.20;12.20;;;27.00;29.50;;;;;;5067009;28;20203;-85
2024/01/20 07:03:17;;;;;;;50.30;13.40;;;27.00;29.50;;;;;;5065956;28;20427;-85
2024/01/20 07:05:44;;;;;;;42.07;13.37;;;26.90;29.50;;;;;;5063587;28;20200;-81
2024/01/20 07:08:11;;;;;;;44.33;12.87;;;26.90;29.60;;;;;;5067209;28;20295;-86
2024/01/20 07:10:39;;;;;;;41.43;13.87;;;26.90;29.50;;;;;;5070450;28;20214;-80
2024/01/20 07:13:06;;;;;;;44.87;13.13;;;27.00;29.60;;;;;;5068115;28;20203;-85
2024/01/20 07:15:34;;;;;;;45.03;14.30;;;27.00;29.50;;;;;;5070130;28;20203;-82
2024/01/20 07:18:01;;;;;;;51.40;14.37;;;27.10;29.50;;;;;;5069962;28;20237;-85
2024/01/20 07:20:28;;;;;;;63.40;15.87;;;27.10;29.50;;;;;;5070498;28;20282;-84
2024/01/20 07:22:55;;;;;;;38.10;14.97;;;27.10;29.50;;;;;;5070764;28;20208;-85
2024/01/20 07:25:22;;;;;;;42.13;14.20;;;27.10;29.40;;;;;;5071132;28;20298;-83
2024/01/20 07:27:49;;;;;;;43.10;14.97;;;27.10;29.40;;;;;;5070820;28;20605;-78
2024/01/20 07:30:16;;;;;;;44.43;15.73;;;27.10;29.40;;;;;;5070801;28;20249;-83
2024/01/20 07:32:44;;;;;;;51.70;16.27;;;27.10;29.40;;;;;;5069844;28;20202;-82
2024/01/20 07:35:11;;;;;;;49.50;17.93;;;27.10;29.40;;;;;;5069770;28;20363;-83
2024/01/20 07:37:38;;;;;;;57.80;15.97;;;27.10;29.40;;;;;;5070730;28;20298;-86
2024/01/20 07:40:06;;;;;;;52.50;16.77;;;27.10;29.40;;;;;;5067295;28;20259;-85
2024/01/20 07:42:34;;;;;;;66.33;19.00;;;27.10;29.40;;;;;;5068926;28;20283;-86
2024/01/20 07:45:02;;;;;;;50.80;25.87;;;27.10;29.40;;;;;;5054141;28;20679;-80
2024/01/20 07:47:29;;;;;;;49.27;16.53;;;27.10;29.30;;;;;;5065879;28;20699;-79
2024/01/20 07:49:57;;;;;;;44.73;16.97;;;27.10;29.40;;;;;;5065209;28;20311;-82
2024/01/20 07:52:24;;;;;;;50.37;18.37;;;27.00;29.30;;;;;;5050190;28;20660;-77
2024/01/20 07:54:51;;;;;;;48.80;18.27;;;27.00;29.30;;;;;;5060948;28;20299;-75
2024/01/20 07:57:18;;;;;;;50.03;18.50;;;27.00;29.40;;;;;;5069788;28;20226;-75
2024/01/20 07:59:45;;;;;;;50.63;19.43;;;27.10;29.40;;;;;;5066738;28;20310;-72
2024/01/20 08:02:13;;;;;;;52.33;17.13;;;27.10;29.40;;;;;;5056033;28;20280;-75
2024/01/20 08:04:39;;;;;;;77.83;19.20;;;27.00;29.30;;;;;;5049115;28;20204;-85
2024/01/20 08:07:10;;;;;;;48.23;18.37;;;27.00;29.30;;;;;;5065815;28;20620;-81
2024/01/20 08:09:36;;;;;;;45.17;18.17;;;27.00;29.30;;;;;;5069201;28;20656;-82
2024/01/20 08:12:04;;;;;;;42.17;17.10;;;27.00;29.30;;;;;;5068975;28;20279;-81
2024/01/20 08:14:31;;;;;;;45.43;15.80;;;27.00;29.40;;;;;;5069745;28;20373;-82
2024/01/20 08:16:58;;;;;;;46.30;17.53;;;27.00;29.40;;;;;;5067447;28;20295;-84
2024/01/20 08:19:25;;;;;;;62.03;20.40;;;27.30;29.50;;;;;;5066445;28;20211;-83
2024/01/20 08:21:52;;;;;;;45.63;18.30;;;27.00;29.90;;;;;;5048740;28;20295;-86
2024/01/20 08:24:20;;;;;;;48.87;16.50;;;27.00;29.40;;;;;;5066382;28;20211;-83
2024/01/20 08:26:47;;;;;;;31.43;15.23;;;27.00;29.30;;;;;;5069094;28;20697;-85
2024/01/20 08:29:14;;;;;;;45.67;17.47;;;27.00;29.30;;;;;;5069119;28;20203;-77
2024/01/20 08:31:41;;;;;;;72.30;22.23;;;27.00;29.30;;;;;;5068409;28;20292;-82
2024/01/20 08:34:08;;;;;;;38.23;16.50;;;27.00;29.40;;;;;;5068710;28;20203;-80
2024/01/20 08:36:35;;;;;;;64.80;18.67;;;27.00;29.30;;;;;;5066644;28;20572;-83
2024/01/20 08:39:02;;;;;;;50.17;17.47;;;27.00;29.30;;;;;;5058724;28;20789;-77
2024/01/20 08:41:30;;;;;;;50.93;17.30;;;27.00;29.40;;;;;;5068595;28;20261;-83
2024/01/20 08:43:57;;;;;;;56.03;19.23;;;27.00;29.30;;;;;;5069127;28;20718;-73
2024/01/20 08:46:25;;;;;;;63.40;17.33;;;27.00;29.40;;;;;;5067379;28;20305;-74
2024/01/20 08:48:52;;;;;;;46.10;16.47;;;27.00;29.40;;;;;;5057331;28;20273;-74
2024/01/20 08:51:19;;;;;;;37.53;17.60;;;27.00;29.40;;;;;;5062680;28;20208;-73
2024/01/20 08:53:47;;;;;;;40.97;16.77;;;27.00;29.40;;;;;;5049003;28;20192;-74
2024/01/20 08:56:14;;;;;;;82.43;19.80;;;27.00;29.90;;;;;;5055982;28;20253;-76
2024/01/20 08:58:42;;;;;;;58.50;19.10;;;27.00;29.40;;;;;;5063677;28;20687;-80
2024/01/20 09:01:09;;;;;;;50.70;19.90;;;27.00;29.40;;;;;;5056982;28;20196;-77
2024/01/20 09:03:36;;;;;;;50.00;18.20;;;27.00;29.40;;;;;;5053561;28;20200;-80
2024/01/20 09:06:03;;;;;;;106.03;34.87;;;27.00;29.40;;;;;;5051299;28;20253;-72
2024/01/20 09:08:30;;;;;;;51.03;18.97;;;27.10;29.30;;;;;;5064499;28;20205;-74
2024/01/20 09:10:58;;;;;;;53.53;18.23;;;27.00;29.30;;;;;;5067641;28;20282;-75
2024/01/20 09:13:25;;;;;;;46.87;17.37;;;27.00;29.30;;;;;;5067437;28;20204;-73
2024/01/20 09:15:54;;;;;;;46.57;18.43;;;27.00;29.30;;;;;;5066758;28;20283;-77
2024/01/20 09:18:21;;;;;;;47.23;17.37;;;27.00;29.30;;;;;;5067323;28;20690;-72
2024/01/20 09:20:48;;;;;;;63.17;19.30;;;27.10;29.30;;;;;;5057612;28;20232;-73
2024/01/20 09:23:14;;;;;;;46.50;17.13;;;27.00;29.40;;;;;;5067550;28;20236;-72
2024/01/20 09:25:41;;;;;;;68.93;19.90;;;27.00;29.40;;;;;;5065639;28;20346;-74
2024/01/20 09:28:08;;;;;;;51.10;19.03;;;27.10;29.50;;;;;;5059239;28;20210;-73
2024/01/20 09:30:35;;;;;;;78.23;19.37;;;27.00;29.50;;;;;;5062551;28;20215;-71
2024/01/20 09:33:05;;;;;;;46.70;19.17;;;27.00;29.60;;;;;;5047434;28;20199;-78
2024/01/20 09:35:32;;;;;;;41.10;16.97;;;27.00;29.60;;;;;;5058619;28;20204;-72
2024/01/20 09:37:59;;;;;;;54.63;16.70;;;27.00;29.50;;;;;;5064244;28;20238;-72
2024/01/20 09:40:26;;;;;;;54.37;19.10;;;27.00;29.40;;;;;;5063523;28;20226;-73
2024/01/20 09:42:53;;;;;;;69.13;19.63;;;27.00;29.40;;;;;;5065920;28;20203;-73
2024/01/20 09:45:20;;;;;;;66.50;19.50;;;27.00;29.40;;;;;;5066494;28;20665;-71
2024/01/20 09:47:47;;;;;;;83.03;20.00;;;27.00;29.40;;;;;;5059315;28;20921;-73
2024/01/20 09:50:15;;;;;;;39.43;16.50;;;27.00;29.30;;;;;;5066226;28;20204;-76
2024/01/20 09:52:52;;;;;;;51.57;19.07;;;27.10;29.30;;;;;;5065758;28;20196;-74
2024/01/20 09:55:23;;;;;;;53.80;19.47;;;27.00;29.20;;;;;;5058779;28;20195;-73
2024/01/20 09:57:51;;;;;;;53.30;18.50;;;27.00;29.30;;;;;;5061406;28;20202;-73
2024/01/20 10:00:20;;;;;;;47.13;16.83;;;27.00;29.30;;;;;;5065350;28;20234;-74
2024/01/20 10:02:48;;;;;;;51.37;18.53;;;27.10;29.20;;;;;;5065853;28;20191;-73
2024/01/20 10:05:17;;;;;;;59.27;18.87;;;27.00;29.20;;;;;;5057185;28;20274;-74
2024/01/20 10:07:44;;;;;;;69.17;21.30;;;27.00;29.20;;;;;;5059615;28;20688;-77
2024/01/20 10:10:20;;;;;;;63.97;24.03;;;27.00;29.20;;;;;;5051900;28;20286;-78
2024/01/20 10:12:49;;;;;;;58.17;19.53;;;27.00;28.90;;;;;;5056615;28;20574;-80
2024/01/20 10:15:20;;;;;;;53.03;19.20;;;27.00;29.10;;;;;;5066892;28;20261;-81
2024/01/20 10:17:47;;;;;;;101.60;21.33;;;27.00;29.20;;;;;;5065213;28;20210;-75
2024/01/20 10:20:21;;;;;;;55.80;19.00;;;27.00;29.20;;;;;;5064625;28;20234;-79
2024/01/20 10:22:48;;;;;;;48.07;18.77;;;26.90;29.20;;;;;;5066963;28;20209;-72
2024/01/20 10:25:19;;;;;;;53.10;19.73;;;26.90;29.20;;;;;;5066445;28;20557;-73
2024/01/20 10:27:47;;;;;;;93.53;21.97;;;27.00;29.20;;;;;;5065410;28;20238;-73
2024/01/20 10:30:15;;;;;;;50.33;18.17;;;26.90;29.20;;;;;;5051389;28;20208;-73
2024/01/20 10:32:42;;;;;;;67.37;18.73;;;26.90;29.20;;;;;;5046585;28;20210;-71
2024/01/20 10:35:09;;;;;;;53.77;18.73;;;26.90;29.20;;;;;;5052525;28;20646;-71
2024/01/20 10:37:42;;;;;;;59.93;19.97;;;26.90;29.20;;;;;;5064012;28;20286;-71
2024/01/20 10:40:12;;;;;;;52.50;19.40;;;26.90;29.20;;;;;;5060129;28;20225;-73
2024/01/20 10:42:44;;;;;;;58.33;18.93;;;26.90;29.20;;;;;;5064863;28;20287;-80
2024/01/20 10:45:16;;;;;;;40.90;18.23;;;26.90;29.20;;;;;;5063325;28;20192;-84
2024/01/20 10:47:51;;;;;;;65.93;20.90;;;27.00;29.20;;;;;;5070366;28;20219;-71
2024/01/20 10:50:18;;;;;;;54.57;18.97;;;27.00;29.20;;;;;;5062497;28;20655;-86
2024/01/20 10:52:48;;;;;;;46.47;17.63;;;27.00;29.20;;;;;;5067690;28;20794;-85
2024/01/20 10:55:16;;;;;;;50.50;19.70;;;27.00;29.20;;;;;;5071059;28;20291;-76
2024/01/20 10:57:43;;;;;;;69.17;21.20;;;27.00;29.20;;;;;;5069873;28;20730;-85
2024/01/20 11:00:11;;;;;;;49.10;18.93;;;27.00;29.20;;;;;;5071197;28;20227;-90
2024/01/20 11:02:39;;;;;;;47.37;17.10;;;27.00;29.20;;;;;;5071462;28;20214;-82
2024/01/20 11:05:18;;;;;;;46.80;18.37;;;27.00;29.20;;;;;;5071136;28;20278;-87
2024/01/20 11:07:57;;;;;;;44.77;17.60;;;27.00;29.10;;;;;;5071486;28;20618;-90
2024/01/20 11:10:24;;;;;;;51.27;19.17;;;27.00;29.10;;;;;;5070940;28;20191;-86
2024/01/20 11:12:59;;;;;;;48.17;17.80;;;27.00;29.20;;;;;;5064430;28;20597;-92
2024/01/20 11:15:30;;;;;;;51.53;17.93;;;27.00;29.20;;;;;;5062814;28;20209;-85
2024/01/20 11:17:57;;;;;;;48.10;18.13;;;27.00;29.10;;;;;;5072290;28;20199;-90
2024/01/20 11:20:24;;;;;;;37.10;18.03;;;27.00;29.20;;;;;;5070823;28;20883;-88
2024/01/20 11:22:51;;;;;;;50.37;18.80;;;27.10;29.20;;;;;;5071070;28;20211;-84
2024/01/20 11:25:19;;;;;;;48.37;17.00;;;27.10;29.70;;;;;;5072042;28;20290;-86
2024/01/20 11:27:47;;;;;;;44.13;17.17;;;27.10;29.20;;;;;;5070762;28;20200;-89
2024/01/20 11:30:24;;;;;;;84.97;21.57;;;27.10;29.20;;;;;;5068749;28;20294;-91
2024/01/20 11:32:51;;;;;;;44.40;18.90;;;27.10;29.20;;;;;;5050870;28;20669;-83
2024/01/20 11:35:18;;;;;;;45.17;18.63;;;27.20;29.10;;;;;;5050036;28;20250;-86
2024/01/20 11:37:45;;;;;;;74.23;20.20;;;27.20;29.10;;;;;;5050121;28;20298;-89
2024/01/20 11:40:12;;;;;;;95.03;21.90;;;27.20;29.10;;;;;;5064571;28;20215;-89
2024/01/20 11:42:40;;;;;;;47.00;19.77;;;27.20;29.00;;;;;;5070063;28;20290;-91
2024/01/20 11:45:08;;;;;;;44.27;19.93;;;27.30;29.00;;;;;;5069625;28;20647;-85
2024/01/20 11:47:35;;;;;;;46.40;18.80;;;27.30;29.00;;;;;;5070501;28;20314;-87
2024/01/20 11:50:02;;;;;;;43.07;17.80;;;27.30;29.00;;;;;;5070182;28;20207;-79
2024/01/20 11:52:29;;;;;;;40.07;18.13;;;27.30;29.00;;;;;;5069814;28;20207;-84
2024/01/20 11:54:56;;;;;;;49.33;19.07;;;27.40;29.00;;;;;;5069362;28;20198;-83
2024/01/20 11:57:26;;;;;;;58.60;21.77;;;27.40;29.00;;;;;;5069629;28;20196;-78
2024/01/20 11:59:55;;;;;;;47.03;17.27;;;27.50;29.00;;;;;;5069698;28;20223;-78
2024/01/20 12:02:22;;;;;;;47.30;18.73;;;27.50;28.90;;;;;;5069708;28;20286;-78
2024/01/20 12:04:49;;;;;;;53.27;18.27;;;27.60;28.90;;;;;;5069521;28;20290;-88
2024/01/20 12:07:17;;;;;;;51.33;20.30;;;27.60;28.90;;;;;;5069833;28;20282;-92
2024/01/20 12:09:45;;;;;;;47.77;21.23;;;27.60;28.90;;;;;;5068768;28;20735;-82
2024/01/20 12:12:13;;;;;;;48.85;19.35;;;27.70;28.90;;;;;;5070033;28;20632;-88
2024/01/20 12:14:41;;;;;;;39.37;18.00;;;27.70;28.90;;;;;;5069450;28;20215;-84
2024/01/20 12:17:10;;;;;;;42.07;17.80;;;27.80;28.90;;;;;;5069626;28;20192;-82
2024/01/20 12:19:38;;;;;;;46.67;18.50;;;27.80;28.80;;;;;;5069491;28;20227;-78
2024/01/20 12:22:06;;;;;;;46.77;18.53;;;27.90;28.80;;;;;;5069306;28;20781;-79
2024/01/20 12:24:33;;;;;;;61.47;20.02;;;27.90;28.70;;;;;;5068646;28;20214;-78
2024/01/20 12:27:02;;;;;;;45.33;17.17;;;28.10;28.70;;;;;;5069601;28;20201;-81